createdAt,value
2018-05-23T00:02:12.638Z,5.80
2018-05-23T00:04:40.910Z,6.77
2018-05-23T00:07:09.202Z,6.20
2018-05-23T00:09:37.475Z,5.90
2018-05-23T00:12:05.828Z,6.30
2018-05-23T00:14:34.057Z,5.33
2018-05-23T00:17:02.356Z,6.20
2018-05-23T00:19:30.618Z,5.60
2018-05-23T00:21:58.897Z,7.00
2018-05-23T00:24:27.183Z,7.77
2018-05-23T00:26:55.458Z,7.13
2018-05-23T00:29:23.736Z,6.60
2018-05-23T00:31:51.998Z,6.23
2018-05-23T00:34:20.275Z,5.93
2018-05-23T00:36:48.658Z,5.83
2018-05-23T00:39:16.926Z,6.03
2018-05-23T00:41:45.255Z,6.47
2018-05-23T00:44:13.519Z,6.23
2018-05-23T00:46:41.790Z,6.30
2018-05-23T00:49:10.062Z,7.13
2018-05-23T00:51:38.341Z,7.77
2018-05-23T00:54:06.618Z,7.07
2018-05-23T00:56:34.890Z,8.37
2018-05-23T00:59:03.175Z,7.57
2018-05-23T01:01:32.115Z,8.10
2018-05-23T01:04:00.379Z,10.40
2018-05-23T01:06:28.655Z,8.80
2018-05-23T01:08:56.937Z,10.03
2018-05-23T01:11:25.229Z,8.60
2018-05-23T01:13:53.507Z,9.07
2018-05-23T01:16:21.790Z,9.30
2018-05-23T01:18:50.067Z,9.83
2018-05-23T01:21:18.358Z,9.83
2018-05-23T01:23:46.639Z,9.97
2018-05-23T01:26:14.910Z,9.63
2018-05-23T01:28:43.202Z,10.20
2018-05-23T01:31:11.478Z,8.50
2018-05-23T01:33:39.770Z,8.73
2018-05-23T01:36:08.046Z,11.63
2018-05-23T01:38:36.334Z,9.60
2018-05-23T01:41:04.618Z,11.43
2018-05-23T01:43:32.902Z,10.03
2018-05-23T01:46:01.198Z,12.03
2018-05-23T01:48:41.145Z,17.67
2018-05-23T01:51:09.438Z,14.17
2018-05-23T01:53:37.721Z,15.87
2018-05-23T01:56:06.111Z,14.07
2018-05-23T01:58:34.307Z,14.57
2018-05-23T02:01:02.634Z,14.00
2018-05-23T02:03:30.898Z,13.53
2018-05-23T02:05:59.182Z,12.70
2018-05-23T02:08:27.470Z,14.40
2018-05-23T02:10:55.753Z,14.40
2018-05-23T02:13:24.054Z,16.53
2018-05-23T02:15:52.333Z,15.23
2018-05-23T02:18:20.709Z,17.63
2018-05-23T02:20:48.997Z,26.40
2018-05-23T02:23:17.282Z,19.80
2018-05-23T02:25:45.578Z,22.43
2018-05-23T02:28:13.865Z,20.60
2018-05-23T02:30:42.146Z,21.47
2018-05-23T02:33:10.439Z,23.03
2018-05-23T02:35:38.723Z,22.63
2018-05-23T02:38:07.035Z,23.67
2018-05-23T02:40:35.327Z,21.03
2018-05-23T02:43:03.627Z,21.03
2018-05-23T02:45:31.928Z,23.00
2018-05-23T02:48:00.206Z,23.63
2018-05-23T02:50:28.510Z,27.83
2018-05-23T02:52:56.793Z,21.40
2018-05-23T02:55:25.071Z,25.10
2018-05-23T02:57:53.362Z,26.43
2018-05-23T03:00:21.650Z,21.53
2018-05-23T03:02:49.979Z,21.73
2018-05-23T03:05:18.240Z,30.40
2018-05-23T03:07:46.524Z,25.07
2018-05-23T03:10:14.812Z,21.73
2018-05-23T03:12:43.095Z,23.83
2018-05-23T03:15:11.403Z,27.17
2018-05-23T03:17:39.698Z,23.80
2018-05-23T03:20:07.999Z,22.87
2018-05-23T03:22:36.297Z,23.93
2018-05-23T03:25:04.578Z,20.80
2018-05-23T03:27:32.885Z,21.93
2018-05-23T03:30:01.166Z,26.83
2018-05-23T03:32:29.447Z,25.07
2018-05-23T03:34:57.814Z,23.97
2018-05-23T03:37:26.094Z,25.90
2018-05-23T03:39:55.110Z,20.83
2018-05-23T03:42:26.109Z,29.60
2018-05-23T03:44:54.403Z,23.83
2018-05-23T03:47:22.689Z,29.53
2018-05-23T03:49:50.974Z,25.10
2018-05-23T03:52:19.713Z,27.73
2018-05-23T03:54:47.996Z,22.23
2018-05-23T03:57:16.297Z,19.93
2018-05-23T03:59:56.354Z,21.07
2018-05-23T04:02:36.319Z,24.70
2018-05-23T04:05:16.624Z,23.10
2018-05-23T04:07:44.917Z,24.10
2018-05-23T04:10:13.202Z,27.40
2018-05-23T04:12:41.482Z,22.23
2018-05-23T04:15:09.767Z,25.53
2018-05-23T04:17:38.890Z,24.27
2018-05-23T04:20:07.370Z,27.67
2018-05-23T04:22:35.660Z,23.70
2018-05-23T04:25:03.947Z,21.40
2018-05-23T04:27:32.240Z,26.20
2018-05-23T04:30:00.525Z,27.23
2018-05-23T04:32:28.822Z,25.23
2018-05-23T04:34:57.101Z,22.90
2018-05-23T04:37:25.382Z,25.30
2018-05-23T04:39:53.677Z,21.50
2018-05-23T04:42:21.972Z,24.13
2018-05-23T04:44:50.274Z,21.77
2018-05-23T04:47:18.555Z,23.57
2018-05-23T04:49:46.834Z,24.63
2018-05-23T04:52:15.130Z,26.80
2018-05-23T04:54:43.627Z,25.50
2018-05-23T04:57:11.934Z,28.30
2018-05-23T04:59:40.230Z,26.37
2018-05-23T05:02:08.522Z,25.77
2018-05-23T05:04:36.805Z,28.33
2018-05-23T05:07:05.118Z,30.93
2018-05-23T05:09:33.418Z,30.83
2018-05-23T05:12:01.704Z,27.60
2018-05-23T05:14:29.995Z,33.63
2018-05-23T05:16:58.286Z,31.90
2018-05-23T05:19:26.588Z,29.20
2018-05-23T05:21:54.870Z,31.60
2018-05-23T05:24:23.154Z,33.07
2018-05-23T05:26:51.442Z,33.53
2018-05-23T05:29:19.759Z,37.57
2018-05-23T05:31:48.124Z,35.20
2018-05-23T05:34:16.343Z,29.50
2018-05-23T05:36:44.622Z,33.97
2018-05-23T05:39:12.902Z,30.03
2018-05-23T05:41:41.206Z,28.83
2018-05-23T05:44:09.528Z,30.40
2018-05-23T05:46:37.810Z,28.80
2018-05-23T05:49:06.116Z,33.70
2018-05-23T05:51:34.397Z,35.47
2018-05-23T05:54:02.694Z,30.77
2018-05-23T05:56:31.003Z,37.53
2018-05-23T05:58:59.282Z,37.03
2018-05-23T06:01:27.570Z,33.60
2018-05-23T06:03:56.766Z,34.23
2018-05-23T06:06:25.107Z,32.60
2018-05-23T06:08:53.351Z,43.13
2018-05-23T06:11:21.627Z,32.17
2018-05-23T06:13:49.921Z,32.43
2018-05-23T06:16:18.287Z,33.17
2018-05-23T06:18:46.590Z,30.67
2018-05-23T06:21:14.874Z,28.80
2018-05-23T06:23:43.178Z,32.37
2018-05-23T06:26:11.462Z,32.50
2018-05-23T06:28:39.742Z,34.80
2018-05-23T06:31:08.074Z,32.20
2018-05-23T06:33:36.398Z,36.17
2018-05-23T06:36:04.677Z,30.93
2018-05-23T06:38:32.973Z,37.30
2018-05-23T06:41:01.266Z,38.57
2018-05-23T06:43:29.658Z,36.77
2018-05-23T06:45:58.138Z,35.30
2018-05-23T06:48:26.391Z,34.90
2018-05-23T06:50:54.714Z,42.47
2018-05-23T06:53:23.020Z,31.47
2018-05-23T06:55:51.306Z,40.47
2018-05-23T06:58:19.634Z,38.90
2018-05-23T07:00:47.917Z,40.23
2018-05-23T07:03:16.259Z,37.67
2018-05-23T07:05:44.577Z,44.63
2018-05-23T07:08:12.876Z,36.70
2018-05-23T07:10:41.175Z,39.30
2018-05-23T07:13:09.454Z,42.73
2018-05-23T07:15:37.753Z,44.93
2018-05-23T07:18:06.077Z,44.80
2018-05-23T07:20:34.369Z,41.43
2018-05-23T07:23:02.646Z,43.57
2018-05-23T07:25:30.922Z,37.73
2018-05-23T07:27:59.227Z,37.97
2018-05-23T07:30:27.509Z,37.37
2018-05-23T07:32:55.817Z,35.40
2018-05-23T07:35:24.114Z,34.13
2018-05-23T07:37:52.398Z,36.27
2018-05-23T07:40:20.694Z,38.20
2018-05-23T07:42:48.982Z,45.60
2018-05-23T07:45:17.264Z,43.43
2018-05-23T07:47:45.546Z,42.57
2018-05-23T07:50:13.842Z,45.27
2018-05-23T07:52:42.165Z,42.03
2018-05-23T07:55:10.459Z,43.37
2018-05-23T07:57:38.770Z,39.17
2018-05-23T08:00:07.142Z,46.27
2018-05-23T08:02:35.446Z,41.10
2018-05-23T08:05:03.745Z,36.63
2018-05-23T08:07:32.042Z,44.97
2018-05-23T08:10:00.344Z,45.00
2018-05-23T08:12:28.659Z,43.40
2018-05-23T08:14:56.951Z,37.63
2018-05-23T08:17:25.261Z,34.07
2018-05-23T08:19:53.554Z,37.10
2018-05-23T08:22:21.881Z,32.57
2018-05-23T08:24:50.138Z,31.63
2018-05-23T08:27:18.447Z,32.47
2018-05-23T08:29:46.820Z,36.07
2018-05-23T08:32:15.023Z,32.73
2018-05-23T08:34:43.330Z,30.37
2018-05-23T08:37:11.618Z,28.90
2018-05-23T08:39:39.910Z,30.13
2018-05-23T08:42:08.197Z,32.27
2018-05-23T08:44:36.474Z,33.17
2018-05-23T08:47:04.776Z,31.83
2018-05-23T08:49:33.054Z,29.77
2018-05-23T08:52:01.995Z,29.57
2018-05-23T08:54:30.308Z,28.27
2018-05-23T08:56:58.578Z,31.30
2018-05-23T08:59:26.877Z,28.90
2018-05-23T09:01:55.156Z,24.87
2018-05-23T09:04:23.439Z,28.67
2018-05-23T09:06:52.410Z,26.80
2018-05-23T09:09:20.750Z,27.73
2018-05-23T09:11:49.030Z,23.63
2018-05-23T09:14:17.316Z,23.23
2018-05-23T09:16:45.597Z,21.60
2018-05-23T09:19:13.888Z,24.03
2018-05-23T09:21:42.175Z,21.13
2018-05-23T09:24:10.462Z,21.40
2018-05-23T09:26:38.746Z,18.23
2018-05-23T09:29:07.022Z,19.70
2018-05-23T09:31:35.364Z,18.73
2018-05-23T09:34:03.607Z,20.07
2018-05-23T09:36:31.917Z,18.83
2018-05-23T09:39:00.199Z,16.23
2018-05-23T09:41:28.482Z,17.40
2018-05-23T09:43:56.778Z,17.77
2018-05-23T09:46:25.058Z,17.23
2018-05-23T09:48:53.366Z,15.57
2018-05-23T09:51:21.678Z,14.63
2018-05-23T09:53:49.965Z,13.83
2018-05-23T09:56:18.260Z,11.47
2018-05-23T09:58:46.538Z,12.87
2018-05-23T10:01:14.839Z,11.27
2018-05-23T10:03:43.113Z,10.30
2018-05-23T10:06:11.406Z,10.60
2018-05-23T10:08:39.708Z,8.87
2018-05-23T10:11:07.986Z,8.77
2018-05-23T10:13:36.294Z,8.73
2018-05-23T10:16:04.580Z,8.23
2018-05-23T10:18:33.633Z,8.17
2018-05-23T10:21:01.931Z,9.20
2018-05-23T10:23:30.194Z,6.77
2018-05-23T10:25:58.510Z,9.70
2018-05-23T10:28:26.784Z,7.50
2018-05-23T10:30:55.065Z,7.63
2018-05-23T10:33:23.445Z,7.23
2018-05-23T10:35:51.650Z,6.83
2018-05-23T10:38:19.942Z,6.33
2018-05-23T10:40:48.262Z,5.90
2018-05-23T10:43:16.541Z,5.30
2018-05-23T10:45:44.818Z,6.23
2018-05-23T10:48:13.090Z,5.93
2018-05-23T10:50:41.390Z,6.20
2018-05-23T10:53:09.666Z,6.00
2018-05-23T10:55:37.954Z,6.50
2018-05-23T10:58:06.247Z,5.77
2018-05-23T11:00:34.531Z,6.57
2018-05-23T11:03:02.923Z,6.20
2018-05-23T11:05:31.104Z,5.77
2018-05-23T11:07:59.370Z,6.73
2018-05-23T11:10:27.669Z,6.47
2018-05-23T11:12:55.942Z,6.90
2018-05-23T11:15:24.240Z,6.80
2018-05-23T11:17:52.529Z,6.50
2018-05-23T11:20:20.803Z,6.70
2018-05-23T11:22:49.814Z,6.47
2018-05-23T11:25:18.090Z,6.53
2018-05-23T11:27:46.383Z,6.73
2018-05-23T11:30:14.664Z,6.60
2018-05-23T11:32:42.954Z,6.07
2018-05-23T11:35:11.246Z,6.50
2018-05-23T11:37:39.517Z,6.43
2018-05-23T11:40:07.810Z,5.87
2018-05-23T11:42:35.379Z,6.03
2018-05-23T11:45:03.410Z,6.10
2018-05-23T11:47:31.694Z,5.13
2018-05-23T11:50:00.006Z,5.50
2018-05-23T11:52:28.302Z,6.23
2018-05-23T11:54:56.570Z,5.63
2018-05-23T11:57:24.880Z,5.80
2018-05-23T11:59:53.169Z,5.80
2018-05-23T12:02:21.446Z,5.60
2018-05-23T12:04:49.861Z,5.40
2018-05-23T12:07:18.131Z,5.80
2018-05-23T12:09:47.268Z,5.30
2018-05-23T12:12:15.563Z,5.33
2018-05-23T12:14:43.845Z,5.70
2018-05-23T12:17:12.198Z,5.80
2018-05-23T12:19:40.497Z,5.73
2018-05-23T12:22:08.762Z,5.87
2018-05-23T12:24:37.038Z,5.97
2018-05-23T12:27:05.361Z,5.20
2018-05-23T12:29:33.651Z,5.80
2018-05-23T12:32:01.930Z,5.73
2018-05-23T12:34:30.222Z,5.30
2018-05-23T12:36:58.524Z,6.20
2018-05-23T12:39:26.779Z,5.70
2018-05-23T12:41:55.054Z,5.83
2018-05-23T12:44:23.338Z,5.37
2018-05-23T12:46:51.609Z,5.33
2018-05-23T12:49:19.902Z,4.73
2018-05-23T12:51:48.174Z,5.03
2018-05-23T12:54:16.447Z,5.57
2018-05-23T12:56:44.726Z,5.20
2018-05-23T12:59:13.001Z,5.50
2018-05-23T13:01:41.290Z,6.00
2018-05-23T13:04:09.566Z,5.97
2018-05-23T13:06:37.842Z,5.90
2018-05-23T13:09:07.837Z,5.27
2018-05-23T13:11:36.138Z,5.87
2018-05-23T13:14:04.438Z,6.63
2018-05-23T13:16:32.716Z,5.87
2018-05-23T13:19:01.078Z,5.73
2018-05-23T13:21:29.280Z,6.03
2018-05-23T13:23:57.574Z,6.33
2018-05-23T13:26:25.858Z,6.60
2018-05-23T13:28:54.139Z,6.30
2018-05-23T13:31:23.198Z,6.20
2018-05-23T13:33:51.481Z,6.83
2018-05-23T13:36:19.754Z,6.07
2018-05-23T13:38:49.220Z,6.00
2018-05-23T13:41:17.440Z,6.73
2018-05-23T13:43:45.709Z,6.40
2018-05-23T13:46:13.986Z,5.50
2018-05-23T13:48:42.258Z,6.40
2018-05-23T13:51:10.551Z,6.80
2018-05-23T13:53:38.823Z,6.37
2018-05-23T13:56:07.090Z,5.87
2018-05-23T13:58:35.404Z,7.03
2018-05-23T14:01:03.684Z,6.70
2018-05-23T14:03:31.966Z,6.00
2018-05-23T14:06:00.234Z,6.07
2018-05-23T14:08:39.395Z,5.03
2018-05-23T14:11:07.681Z,6.50
2018-05-23T14:13:35.945Z,6.30
2018-05-23T14:16:04.222Z,6.40
2018-05-23T14:18:32.494Z,6.80
2018-05-23T14:21:01.058Z,6.70
2018-05-23T14:23:29.329Z,6.33
2018-05-23T14:25:57.624Z,7.07
2018-05-23T14:28:26.843Z,6.83
2018-05-23T14:30:55.028Z,6.97
2018-05-23T14:33:23.326Z,7.27
2018-05-23T14:35:51.643Z,6.53
2018-05-23T14:38:19.894Z,6.90
2018-05-23T14:40:48.186Z,6.60
2018-05-23T14:43:16.466Z,7.47
2018-05-23T14:45:45.077Z,6.60
2018-05-23T14:48:13.345Z,6.97
2018-05-23T14:50:41.618Z,7.50
2018-05-23T14:53:09.898Z,6.87
2018-05-23T14:55:38.198Z,6.20
2018-05-23T14:58:06.481Z,7.27
2018-05-23T15:00:34.758Z,7.80
2018-05-23T15:03:03.400Z,8.00
2018-05-23T15:05:31.670Z,7.77
2018-05-23T15:07:59.946Z,7.97
2018-05-23T15:10:28.843Z,6.83
2018-05-23T15:12:57.109Z,7.50
2018-05-23T15:15:25.458Z,7.30
2018-05-23T15:17:53.742Z,7.03
2018-05-23T15:20:22.014Z,7.47
2018-05-23T15:22:50.310Z,8.33
2018-05-23T15:25:18.594Z,7.47
2018-05-23T15:27:46.874Z,6.87
2018-05-23T15:30:15.163Z,8.23
2018-05-23T15:32:43.450Z,7.60
2018-05-23T15:35:11.820Z,6.80
2018-05-23T15:37:40.123Z,6.50
2018-05-23T15:40:08.388Z,6.83
2018-05-23T15:42:36.672Z,6.80
2018-05-23T15:45:04.954Z,7.90
2018-05-23T15:47:33.234Z,7.40
2018-05-23T15:50:01.511Z,7.90
2018-05-23T15:52:29.781Z,7.10
2018-05-23T15:54:58.058Z,7.90
2018-05-23T15:57:26.335Z,7.00
2018-05-23T15:59:54.633Z,7.83
2018-05-23T16:02:22.901Z,7.43
2018-05-23T16:04:51.201Z,7.00
2018-05-23T16:07:19.478Z,7.70
2018-05-23T16:09:47.755Z,7.37
2018-05-23T16:12:16.033Z,6.30
2018-05-23T16:14:44.313Z,7.53
2018-05-23T16:17:12.582Z,7.13
2018-05-23T16:19:40.872Z,6.97
2018-05-23T16:22:09.150Z,7.00
2018-05-23T16:24:37.512Z,7.10
2018-05-23T16:27:05.722Z,7.27
2018-05-23T16:29:34.002Z,7.40
2018-05-23T16:32:02.289Z,7.00
2018-05-23T16:34:30.562Z,7.17
2018-05-23T16:36:58.853Z,7.10
2018-05-23T16:39:27.122Z,7.60
2018-05-23T16:41:55.390Z,7.37
2018-05-23T16:44:23.761Z,6.90
2018-05-23T16:46:51.995Z,7.43
2018-05-23T16:49:21.322Z,7.03
2018-05-23T16:51:49.629Z,5.90
2018-05-23T16:54:17.953Z,6.10
2018-05-23T16:56:46.251Z,5.67
2018-05-23T16:59:14.523Z,6.03
2018-05-23T17:01:42.822Z,6.27
2018-05-23T17:04:11.108Z,5.87
2018-05-23T17:06:39.393Z,5.67
2018-05-23T17:09:08.650Z,5.57
2018-05-23T17:11:36.924Z,6.30
2018-05-23T17:14:05.226Z,6.00
2018-05-23T17:16:33.506Z,5.60
2018-05-23T17:19:01.779Z,5.63
2018-05-23T17:21:30.054Z,5.83
2018-05-23T17:23:58.419Z,5.43
2018-05-23T17:26:26.670Z,5.73
2018-05-23T17:28:54.941Z,5.53
2018-05-23T17:31:23.225Z,6.07
2018-05-23T17:33:51.506Z,5.73
2018-05-23T17:36:19.782Z,5.90
2018-05-23T17:38:48.070Z,5.60
2018-05-23T17:41:16.603Z,5.50
2018-05-23T17:43:44.871Z,5.37
2018-05-23T17:46:13.161Z,5.50
2018-05-23T17:48:41.429Z,5.60
2018-05-23T17:51:09.741Z,5.53
2018-05-23T17:53:38.022Z,5.83
2018-05-23T17:56:06.305Z,5.40
2018-05-23T17:58:34.601Z,5.70
2018-05-23T18:01:02.858Z,5.90
2018-05-23T18:03:31.145Z,5.10
2018-05-23T18:05:59.443Z,5.87
2018-05-23T18:08:27.694Z,5.40
2018-05-23T18:10:55.988Z,5.87
2018-05-23T18:13:24.268Z,5.63
2018-05-23T18:15:52.581Z,5.77
2018-05-23T18:18:22.132Z,5.50
2018-05-23T18:20:50.422Z,5.60
2018-05-23T18:23:18.838Z,5.53
2018-05-23T18:25:47.070Z,5.30
2018-05-23T18:28:15.444Z,5.33
2018-05-23T18:30:43.642Z,5.87
2018-05-23T18:33:11.919Z,5.27
2018-05-23T18:35:40.210Z,5.57
2018-05-23T18:38:08.487Z,5.50
2018-05-23T18:40:36.778Z,5.00
2018-05-23T18:43:05.042Z,5.30
2018-05-23T18:45:33.310Z,5.00
2018-05-23T18:48:01.609Z,5.23
2018-05-23T18:50:29.909Z,4.40
2018-05-23T18:52:58.197Z,5.20
2018-05-23T18:55:26.469Z,5.43
2018-05-23T18:57:54.760Z,5.30
2018-05-23T19:00:23.061Z,5.20
2018-05-23T19:02:51.326Z,4.60
2018-05-23T19:05:19.676Z,5.80
2018-05-23T19:07:47.905Z,5.50
2018-05-23T19:10:16.178Z,5.90
2018-05-23T19:12:44.466Z,5.47
2018-05-23T19:15:12.739Z,5.57
2018-05-23T19:17:41.080Z,5.30
2018-05-23T19:20:09.373Z,5.33
2018-05-23T19:22:37.615Z,6.13
2018-05-23T19:25:05.901Z,5.97
2018-05-23T19:27:34.168Z,5.87
2018-05-23T19:30:02.457Z,5.97
2018-05-23T19:32:30.726Z,5.93
2018-05-23T19:34:58.998Z,5.40
2018-05-23T19:37:27.289Z,5.60
2018-05-23T19:39:55.562Z,5.80
2018-05-23T19:42:24.393Z,5.10
2018-05-23T19:44:52.669Z,5.13
2018-05-23T19:47:21.006Z,6.20
2018-05-23T19:49:49.242Z,4.90
2018-05-23T19:52:17.515Z,5.27
2018-05-23T19:54:45.790Z,5.50
2018-05-23T19:57:14.063Z,5.13
2018-05-23T19:59:42.335Z,5.17
2018-05-23T20:02:10.631Z,4.73
2018-05-23T20:04:38.885Z,5.17
2018-05-23T20:07:07.168Z,4.87
2018-05-23T20:09:35.434Z,5.00
2018-05-23T20:12:03.702Z,5.53
2018-05-23T20:14:32.073Z,5.10
2018-05-23T20:17:00.259Z,4.57
2018-05-23T20:19:28.553Z,5.47
2018-05-23T20:21:56.899Z,5.50
2018-05-23T20:24:25.090Z,5.30
2018-05-23T20:26:53.379Z,5.60
2018-05-23T20:29:21.671Z,5.60
2018-05-23T20:31:49.978Z,5.40
2018-05-23T20:34:18.254Z,6.27
2018-05-23T20:36:46.519Z,6.10
2018-05-23T20:39:14.798Z,6.30
2018-05-23T20:41:43.072Z,5.70
2018-05-23T20:46:48.662Z,5.70
2018-05-23T20:49:16.958Z,5.53
2018-05-23T20:51:45.233Z,6.10
2018-05-23T20:54:13.513Z,6.70
2018-05-23T20:56:41.797Z,7.27
2018-05-23T20:59:10.078Z,5.97
2018-05-23T21:01:38.433Z,6.97
2018-05-23T21:04:06.706Z,7.83
2018-05-23T21:06:34.982Z,6.50
2018-05-23T21:09:03.262Z,7.03
2018-05-23T21:11:37.129Z,7.13
2018-05-23T21:14:05.400Z,7.10
2018-05-23T21:16:33.966Z,6.63
2018-05-23T21:19:02.239Z,6.90
2018-05-23T21:21:30.522Z,6.30
2018-05-23T21:23:58.795Z,5.83
2018-05-23T21:26:27.086Z,7.17
2018-05-23T21:28:55.355Z,6.00
2018-05-23T21:31:23.617Z,6.70
2018-05-23T21:33:51.897Z,6.87
2018-05-23T21:36:20.254Z,7.03
2018-05-23T21:38:48.554Z,7.17
2018-05-23T21:41:16.830Z,6.90
2018-05-23T21:43:45.102Z,7.83
2018-05-23T21:46:13.387Z,6.93
2018-05-23T21:48:41.658Z,6.60
2018-05-23T21:51:09.958Z,6.73
2018-05-23T21:53:38.226Z,6.50
2018-05-23T21:56:06.505Z,6.43
2018-05-23T21:58:34.781Z,9.10
2018-05-23T22:01:03.054Z,8.47
2018-05-23T22:03:31.342Z,7.40
2018-05-23T22:05:59.609Z,7.00
2018-05-23T22:08:27.881Z,6.80
2018-05-23T22:10:56.153Z,7.07
2018-05-23T22:13:24.529Z,8.40
2018-05-23T22:15:52.818Z,8.87
2018-05-23T22:18:21.181Z,8.53
2018-05-23T22:20:49.353Z,7.10
2018-05-23T22:23:17.638Z,8.57
2018-05-23T22:25:45.910Z,6.63
2018-05-23T22:28:15.026Z,7.50
2018-05-23T22:30:43.333Z,8.37
2018-05-23T22:33:11.570Z,7.93
2018-05-23T22:35:39.853Z,7.27
2018-05-23T22:38:08.118Z,6.83
2018-05-23T22:40:36.402Z,8.90
2018-05-23T22:43:04.674Z,7.27
2018-05-23T22:45:32.947Z,6.43
2018-05-23T22:48:01.243Z,7.80
2018-05-23T22:50:29.509Z,8.23
2018-05-23T22:52:57.797Z,7.13
2018-05-23T22:55:26.070Z,7.63
2018-05-23T22:57:54.346Z,7.47
2018-05-23T23:00:22.642Z,7.83
2018-05-23T23:02:50.631Z,6.47
2018-05-23T23:05:18.939Z,8.80
2018-05-23T23:07:47.214Z,8.63
2018-05-23T23:10:15.489Z,7.57
2018-05-23T23:12:43.793Z,7.50
2018-05-23T23:15:12.099Z,7.40
2018-05-23T23:17:41.238Z,7.60
2018-05-23T23:20:09.521Z,7.03
2018-05-23T23:22:38.586Z,6.23
2018-05-23T23:25:06.870Z,7.10
2018-05-23T23:27:35.142Z,6.30
2018-05-23T23:30:03.433Z,7.53
2018-05-23T23:32:31.711Z,8.07
2018-05-23T23:34:59.990Z,7.27
2018-05-23T23:37:28.276Z,6.90
2018-05-23T23:39:56.544Z,7.47
2018-05-23T23:42:24.834Z,6.70
2018-05-23T23:44:53.115Z,7.13
2018-05-23T23:47:21.382Z,7.60
2018-05-23T23:49:49.658Z,7.63
2018-05-23T23:52:18.238Z,7.10
2018-05-23T23:54:46.515Z,8.17
2018-05-23T23:57:14.791Z,8.30
2018-05-23T23:59:45.002Z,7.90
